Time;durP1;ratioP1;P1;durP2;ratioP2;P2;SDS_P1;SDS_P2;PMS_P1;PMS_P2;Temp;Humidity;BMP_temperature;BMP_pressure;BME280_temperature;BME280_humidity;BME280_pressure;Samples;Min_cycle;Max_cycle;Signal;HPM_P1;HPM_P2
2022/04/06 00:00:26;;;;;;;1.50;1.40;;;20.50;49.50;;;;;;5014500;28;20662;-67
2022/04/06 00:02:51;;;;;;;2.10;1.40;;;20.50;49.50;;;;;;4998423;28;20188;-67
2022/04/06 00:05:17;;;;;;;1.38;1.10;;;20.50;49.50;;;;;;5030850;28;20254;-67
2022/04/06 00:07:44;;;;;;;1.75;1.10;;;20.50;49.50;;;;;;5030994;28;20187;-67
2022/04/06 00:10:12;;;;;;;1.55;1.10;;;20.50;49.50;;;;;;5030947;28;20581;-68
2022/04/06 00:12:42;;;;;;;1.45;1.00;;;20.50;49.50;;;;;;5015561;28;20168;-68
2022/04/06 00:15:11;;;;;;;2.05;1.02;;;20.50;49.50;;;;;;5030954;28;20251;-68
2022/04/06 00:17:38;;;;;;;2.03;1.30;;;20.50;49.50;;;;;;5014195;28;20580;-67
2022/04/06 00:20:06;;;;;;;1.30;1.20;;;20.50;49.50;;;;;;5015660;28;20185;-67
2022/04/06 00:22:32;;;;;;;1.27;1.17;;;20.50;49.60;;;;;;5014268;28;20189;-67
2022/04/06 00:24:58;;;;;;;1.20;1.00;;;20.50;49.50;;;;;;5015210;28;20196;-67
2022/04/06 00:27:25;;;;;;;1.25;1.15;;;20.50;49.50;;;;;;4997735;28;20191;-68
2022/04/06 00:29:51;;;;;;;1.40;1.30;;;20.50;49.50;;;;;;5030881;28;20204;-67
2022/04/06 00:32:17;;;;;;;1.33;1.23;;;20.50;49.50;;;;;;5014244;28;20663;-68
2022/04/06 00:37:27;;;;;;;1.15;1.10;;;20.50;49.50;;;;;;5030063;28;20240;-68
2022/04/06 00:39:52;;;;;;;1.40;1.10;;;20.50;49.50;;;;;;5030561;28;20258;-67
2022/04/06 00:42:18;;;;;;;1.00;1.00;;;20.50;49.60;;;;;;5013618;28;20191;-67
2022/04/06 00:44:45;;;;;;;1.23;1.00;;;20.50;49.60;;;;;;5013529;28;20208;-67
2022/04/06 00:47:10;;;;;;;1.00;0.93;;;20.50;49.60;;;;;;5014740;28;20195;-67
2022/04/06 00:49:37;;;;;;;2.25;1.40;;;20.40;49.50;;;;;;5013562;28;20187;-67
2022/04/06 00:52:06;;;;;;;1.42;1.15;;;20.50;49.60;;;;;;5013643;28;20184;-67
2022/04/06 00:54:34;;;;;;;2.42;1.25;;;20.50;49.60;;;;;;5029774;28;20220;-68
2022/04/06 00:57:01;;;;;;;1.45;1.20;;;20.50;49.60;;;;;;5029636;28;20196;-67
2022/04/06 00:59:30;;;;;;;1.10;1.00;;;20.50;49.60;;;;;;5030213;28;20188;-68
2022/04/06 01:01:57;;;;;;;1.27;1.17;;;20.40;49.50;;;;;;5013301;28;20184;-68
2022/04/06 01:04:23;;;;;;;1.40;1.05;;;20.50;49.60;;;;;;5013268;28;20202;-66
2022/04/06 01:06:51;;;;;;;1.88;1.00;;;20.40;49.50;;;;;;5029554;28;20629;-67
2022/04/06 01:09:18;;;;;;;1.05;1.05;;;20.50;49.60;;;;;;5029487;28;20631;-67
2022/04/06 01:11:47;;;;;;;1.40;1.00;;;20.50;49.60;;;;;;4997181;28;20191;-67
2022/04/06 01:14:14;;;;;;;1.35;1.25;;;20.40;49.50;;;;;;5029634;28;20192;-67
2022/04/06 01:16:41;;;;;;;1.33;1.23;;;20.50;49.60;;;;;;5014253;28;20200;-67
2022/04/06 01:19:07;;;;;;;1.23;1.13;;;20.40;49.50;;;;;;5013029;28;20223;-68
2022/04/06 01:21:33;;;;;;;1.00;1.00;;;20.40;49.50;;;;;;4996739;28;20215;-68
2022/04/06 01:23:59;;;;;;;1.10;1.00;;;20.40;49.50;;;;;;5013031;28;20184;-67
2022/04/06 01:26:25;;;;;;;1.10;1.00;;;20.40;49.50;;;;;;5013095;28;20208;-68
2022/04/06 01:28:51;;;;;;;1.48;0.80;;;20.40;49.60;;;;;;5012877;28;20219;-67
2022/04/06 01:31:17;;;;;;;0.98;0.98;;;20.40;49.60;;;;;;5013209;28;20188;-68
2022/04/06 01:33:45;;;;;;;1.23;1.13;;;20.40;49.50;;;;;;5013013;28;20195;-67
2022/04/06 01:36:11;;;;;;;1.02;1.00;;;20.40;49.60;;;;;;5012852;28;20215;-68
2022/04/06 01:38:36;;;;;;;1.08;1.00;;;20.40;49.50;;;;;;5029092;28;20212;-68
2022/04/06 01:41:02;;;;;;;1.77;1.13;;;20.40;49.50;;;;;;5029493;28;20172;-68
2022/04/06 01:43:28;;;;;;;1.42;1.00;;;20.50;49.60;;;;;;5029070;28;20231;-67
2022/04/06 01:45:54;;;;;;;1.10;1.00;;;20.40;49.50;;;;;;5029023;28;20199;-68
2022/04/06 01:48:21;;;;;;;1.13;1.00;;;20.40;49.60;;;;;;5028904;28;20184;-68
2022/04/06 01:53:32;;;;;;;1.20;1.10;;;20.40;49.60;;;;;;5012476;28;20182;-68
2022/04/06 01:55:58;;;;;;;1.08;1.00;;;20.40;49.60;;;;;;5012612;28;20208;-67
2022/04/06 01:58:23;;;;;;;0.90;0.90;;;20.40;49.60;;;;;;5012217;28;20226;-68
2022/04/06 02:00:52;;;;;;;1.67;1.23;;;20.40;49.50;;;;;;5012433;28;20192;-67
2022/04/06 02:03:17;;;;;;;1.00;1.00;;;20.40;49.50;;;;;;5012289;28;20263;-67
2022/04/06 02:05:43;;;;;;;0.90;0.90;;;20.40;49.60;;;;;;5028935;28;20284;-68
2022/04/06 02:08:10;;;;;;;1.92;1.08;;;20.40;49.50;;;;;;5012429;28;20184;-68
2022/04/06 02:10:38;;;;;;;0.75;0.75;;;20.40;49.60;;;;;;5012449;28;20188;-68
2022/04/06 02:13:04;;;;;;;1.20;1.20;;;20.40;49.60;;;;;;5012323;28;20238;-68
2022/04/06 02:15:30;;;;;;;0.90;0.90;;;20.40;50.20;;;;;;4996008;28;20211;-67
2022/04/06 02:17:56;;;;;;;0.82;0.82;;;20.40;49.60;;;;;;5012253;28;20315;-68
2022/04/06 02:20:22;;;;;;;1.05;1.00;;;20.40;49.60;;;;;;5012621;28;20204;-68
2022/04/06 02:22:49;;;;;;;0.77;0.75;;;20.40;49.60;;;;;;5011880;28;20242;-68
2022/04/06 02:25:15;;;;;;;1.55;0.85;;;20.40;49.60;;;;;;5011834;28;20212;-68
2022/04/06 02:27:59;;;;;;;1.33;1.13;;;20.40;49.60;;;;;;5028542;28;20288;-68
2022/04/06 02:30:25;;;;;;;1.20;1.00;;;20.40;49.60;;;;;;5011851;28;20200;-67
2022/04/06 02:32:51;;;;;;;0.80;0.80;;;20.40;49.60;;;;;;5028417;28;20173;-67
2022/04/06 02:35:17;;;;;;;1.15;1.10;;;20.40;49.60;;;;;;5042414;22;20626;-65
2022/04/06 02:37:44;;;;;;;1.83;0.93;;;20.40;49.60;;;;;;5050872;28;20298;-68
2022/04/06 02:40:12;;;;;;;1.13;1.00;;;20.40;49.60;;;;;;5051458;28;20568;-69
2022/04/06 02:42:38;;;;;;;0.80;0.80;;;20.40;49.60;;;;;;5052241;28;20186;-68
2022/04/06 02:45:04;;;;;;;1.20;1.10;;;20.40;49.60;;;;;;5051306;28;20186;-68
2022/04/06 02:47:30;;;;;;;0.88;0.88;;;20.40;49.60;;;;;;5034381;28;20628;-68
2022/04/06 02:49:56;;;;;;;0.90;0.90;;;20.40;49.60;;;;;;5059420;28;20221;-68
2022/04/06 02:52:22;;;;;;;0.85;0.85;;;20.40;49.60;;;;;;5082385;28;20319;-68
2022/04/06 02:54:48;;;;;;;0.90;0.90;;;20.40;49.60;;;;;;5087871;28;20579;-68
2022/04/06 02:57:14;;;;;;;1.05;1.00;;;20.40;49.60;;;;;;5087740;28;20221;-69
2022/04/06 02:59:40;;;;;;;0.88;0.88;;;20.40;49.60;;;;;;5071092;28;20573;-68
2022/04/06 03:02:06;;;;;;;1.10;1.00;;;20.40;49.60;;;;;;5071192;28;20208;-68
2022/04/06 03:04:32;;;;;;;1.30;1.20;;;20.40;49.60;;;;;;5071033;28;20185;-68
2022/04/06 03:06:57;;;;;;;0.80;0.80;;;20.40;49.60;;;;;;5070870;28;20288;-68
2022/04/06 03:09:23;;;;;;;1.05;0.95;;;20.40;49.70;;;;;;5070889;28;20177;-71
2022/04/06 03:11:49;;;;;;;1.90;1.05;;;20.40;49.70;;;;;;5070996;28;20556;-72
2022/04/06 03:14:14;;;;;;;0.80;0.80;;;20.40;49.70;;;;;;5071149;28;20208;-71
2022/04/06 03:16:40;;;;;;;1.08;0.98;;;20.40;49.70;;;;;;5070365;28;20205;-70
2022/04/06 03:19:06;;;;;;;1.65;0.88;;;20.40;49.60;;;;;;5071772;28;20213;-71
2022/04/06 03:21:32;;;;;;;0.95;0.90;;;20.40;49.70;;;;;;5087418;28;20178;-71
2022/04/06 03:23:58;;;;;;;0.82;0.82;;;20.40;50.30;;;;;;5087969;28;20178;-71
2022/04/06 03:26:23;;;;;;;0.80;0.80;;;20.40;49.60;;;;;;5087672;28;20220;-71
2022/04/06 03:28:49;;;;;;;1.00;0.82;;;20.40;49.60;;;;;;5071872;28;20186;-70
2022/04/06 03:31:15;;;;;;;1.48;1.00;;;20.40;49.60;;;;;;5071305;28;20177;-71
2022/04/06 03:33:41;;;;;;;1.25;1.10;;;20.40;49.70;;;;;;5091802;28;20193;-71
2022/04/06 03:36:08;;;;;;;1.38;1.08;;;20.40;49.60;;;;;;5074624;28;20214;-71
2022/04/06 03:38:34;;;;;;;1.10;1.08;;;20.40;49.60;;;;;;5074415;28;20328;-71
2022/04/06 03:41:00;;;;;;;0.85;0.85;;;20.40;49.60;;;;;;5091772;28;20276;-70
2022/04/06 03:43:26;;;;;;;0.80;0.80;;;20.40;49.60;;;;;;5075740;28;20189;-71
2022/04/06 03:45:52;;;;;;;0.82;0.82;;;20.40;49.60;;;;;;5075629;28;20197;-71
2022/04/06 03:48:19;;;;;;;1.20;1.10;;;20.40;49.70;;;;;;5074379;28;20182;-71
2022/04/06 03:50:45;;;;;;;1.00;0.90;;;20.40;49.70;;;;;;5074466;28;20202;-71
2022/04/06 03:53:11;;;;;;;1.02;0.93;;;20.40;49.60;;;;;;5075572;28;20190;-71
2022/04/06 03:55:36;;;;;;;1.10;0.90;;;20.40;49.60;;;;;;5074341;28;20213;-70
2022/04/06 03:58:03;;;;;;;0.90;0.88;;;20.40;49.60;;;;;;5074344;28;20224;-71
2022/04/06 04:00:29;;;;;;;1.10;1.00;;;20.40;49.60;;;;;;5074564;28;20189;-70
2022/04/06 04:02:54;;;;;;;0.98;0.98;;;20.30;49.60;;;;;;5091171;28;20186;-70
2022/04/06 04:05:20;;;;;;;0.73;0.73;;;20.40;49.60;;;;;;5074039;28;20703;-70
2022/04/06 04:07:46;;;;;;;0.88;0.75;;;20.30;49.60;;;;;;5073960;28;20247;-71
2022/04/06 04:10:14;;;;;;;1.17;0.80;;;20.30;49.60;;;;;;5090830;28;20182;-71
2022/04/06 04:12:40;;;;;;;0.88;0.85;;;20.40;49.60;;;;;;5057325;28;20193;-71
2022/04/06 04:15:07;;;;;;;1.00;1.00;;;20.40;49.70;;;;;;5075115;28;20265;-70
2022/04/06 04:17:33;;;;;;;0.85;0.85;;;20.40;49.70;;;;;;5090825;28;20220;-71
2022/04/06 04:19:58;;;;;;;1.35;0.85;;;20.40;49.60;;;;;;5074319;28;20178;-70
2022/04/06 04:22:24;;;;;;;0.80;0.80;;;20.40;49.70;;;;;;5090699;28;20235;-71
2022/04/06 04:24:50;;;;;;;0.80;0.80;;;20.40;49.60;;;;;;5073684;28;20190;-70
2022/04/06 04:27:16;;;;;;;0.90;0.90;;;20.30;49.60;;;;;;5074858;28;20186;-71
2022/04/06 04:29:42;;;;;;;1.33;1.20;;;20.40;49.70;;;;;;5090609;28;20277;-71
2022/04/06 04:32:10;;;;;;;1.20;1.15;;;20.40;49.70;;;;;;5090504;28;20217;-70
2022/04/06 04:34:37;;;;;;;1.20;1.10;;;20.40;49.70;;;;;;5057156;28;20196;-70
2022/04/06 04:37:03;;;;;;;1.08;1.08;;;20.40;49.70;;;;;;5086199;28;20252;-71
2022/04/06 04:39:29;;;;;;;1.20;1.10;;;20.40;49.70;;;;;;5045479;28;20195;-71
2022/04/06 04:41:55;;;;;;;1.58;1.35;;;20.40;49.70;;;;;;5033002;28;20190;-71
2022/04/06 04:44:21;;;;;;;1.30;1.20;;;20.40;49.70;;;;;;5037644;28;20179;-71
2022/04/06 04:46:46;;;;;;;1.00;1.00;;;20.40;49.70;;;;;;5042057;28;20203;-71
2022/04/06 04:49:12;;;;;;;1.10;1.00;;;20.40;49.70;;;;;;5033500;28;20187;-71
2022/04/06 04:51:38;;;;;;;1.60;1.20;;;20.40;49.70;;;;;;5042496;28;20211;-71
2022/04/06 04:54:03;;;;;;;0.90;0.90;;;20.40;49.70;;;;;;5034480;28;20258;-71
2022/04/06 04:56:32;;;;;;;1.10;1.00;;;20.40;49.70;;;;;;5033212;28;20226;-72
2022/04/06 04:58:59;;;;;;;1.00;1.00;;;20.40;49.70;;;;;;5049699;28;20345;-70
2022/04/06 05:01:25;;;;;;;1.80;0.93;;;20.40;49.70;;;;;;5050170;28;20195;-70
2022/04/06 05:03:51;;;;;;;1.08;0.98;;;20.40;49.70;;;;;;5033269;28;20248;-70
2022/04/06 05:06:17;;;;;;;0.90;0.90;;;20.40;49.70;;;;;;5016837;28;20264;-72
2022/04/06 05:08:43;;;;;;;1.70;1.05;;;20.30;49.60;;;;;;5034259;28;20198;-71
2022/04/06 05:11:10;;;;;;;1.13;1.00;;;20.40;49.70;;;;;;5032940;28;20187;-71
2022/04/06 05:13:36;;;;;;;1.42;0.93;;;20.40;49.70;;;;;;5049849;28;20184;-71
2022/04/06 05:16:02;;;;;;;1.08;0.93;;;20.40;49.80;;;;;;5049412;28;20209;-71
2022/04/06 05:18:29;;;;;;;0.98;0.98;;;20.40;49.70;;;;;;5036623;28;20196;-71
2022/04/06 05:20:56;;;;;;;0.80;0.80;;;20.40;49.70;;;;;;5069554;28;20197;-71
2022/04/06 05:23:22;;;;;;;1.60;1.23;;;20.40;49.80;;;;;;5052747;28;20332;-71
2022/04/06 05:25:48;;;;;;;1.15;1.00;;;20.40;49.70;;;;;;5053860;28;20290;-71
2022/04/06 05:28:18;;;;;;;1.30;1.20;;;20.40;49.70;;;;;;5032823;28;20187;-71
2022/04/06 05:30:46;;;;;;;1.63;0.90;;;20.40;49.70;;;;;;5049602;28;20182;-70
2022/04/06 05:33:12;;;;;;;1.42;1.33;;;20.40;49.70;;;;;;5033852;28;20194;-71
2022/04/06 05:35:38;;;;;;;1.38;1.20;;;20.30;49.60;;;;;;5034537;28;20247;-71
2022/04/06 05:38:04;;;;;;;1.60;1.33;;;20.40;49.70;;;;;;5035875;28;20291;-71
2022/04/06 05:40:29;;;;;;;1.40;1.30;;;20.40;49.80;;;;;;5052548;28;20171;-71
2022/04/06 05:42:55;;;;;;;1.55;1.45;;;20.40;49.80;;;;;;5036149;28;20178;-70
2022/04/06 05:45:21;;;;;;;1.55;1.30;;;20.40;49.70;;;;;;5052487;28;20194;-71
2022/04/06 05:47:47;;;;;;;1.00;1.00;;;20.40;49.70;;;;;;5068777;28;20194;-71
2022/04/06 05:50:14;;;;;;;1.23;1.13;;;20.40;49.70;;;;;;5053553;28;20186;-71
2022/04/06 05:52:40;;;;;;;1.02;1.00;;;20.40;49.80;;;;;;5052409;28;20188;-71
2022/04/06 05:55:07;;;;;;;1.25;1.05;;;20.40;49.80;;;;;;5051269;28;20625;-71
2022/04/06 05:57:33;;;;;;;1.48;1.20;;;20.40;49.80;;;;;;5052090;28;20218;-71
2022/04/06 05:59:59;;;;;;;1.20;1.00;;;20.40;49.80;;;;;;5052004;28;20272;-71
2022/04/06 06:02:25;;;;;;;1.40;1.17;;;20.40;49.70;;;;;;5052016;28;20183;-71
2022/04/06 06:04:52;;;;;;;1.20;1.10;;;20.40;49.80;;;;;;5045523;28;20187;-71
2022/04/06 06:07:21;;;;;;;1.67;1.00;;;20.40;49.80;;;;;;5048343;28;20178;-71
2022/04/06 06:09:47;;;;;;;1.00;0.88;;;20.40;49.80;;;;;;5050909;28;20219;-71
2022/04/06 06:12:14;;;;;;;1.20;1.10;;;20.40;49.80;;;;;;5067742;28;20196;-70
2022/04/06 06:14:40;;;;;;;1.90;1.15;;;20.40;49.80;;;;;;5068608;28;20187;-71
2022/04/06 06:17:06;;;;;;;1.45;1.08;;;20.40;49.80;;;;;;5068137;28;20660;-70
2022/04/06 06:19:32;;;;;;;1.42;1.33;;;20.40;49.80;;;;;;5051916;28;20190;-71
2022/04/06 06:21:57;;;;;;;1.30;1.20;;;20.40;49.80;;;;;;5052845;28;20193;-71
2022/04/06 06:24:24;;;;;;;2.38;1.20;;;20.40;49.80;;;;;;5051872;28;20213;-71
2022/04/06 06:26:50;;;;;;;1.30;1.25;;;20.40;49.80;;;;;;5052613;28;20293;-72
2022/04/06 06:29:16;;;;;;;1.50;1.40;;;20.40;49.80;;;;;;5051698;28;20187;-72
2022/04/06 06:31:42;;;;;;;1.40;1.30;;;20.40;49.80;;;;;;5051220;28;20574;-72
2022/04/06 06:34:08;;;;;;;2.00;1.40;;;20.40;49.80;;;;;;5052772;28;20189;-72
2022/04/06 06:36:34;;;;;;;1.50;1.40;;;20.40;49.80;;;;;;5049102;28;20222;-71
2022/04/06 06:39:00;;;;;;;1.35;1.23;;;20.40;49.80;;;;;;5032409;28;20211;-71
2022/04/06 06:41:27;;;;;;;1.20;1.10;;;20.30;49.70;;;;;;5040392;28;20187;-71
2022/04/06 06:43:53;;;;;;;1.30;1.20;;;20.40;49.80;;;;;;5048267;28;20190;-71
2022/04/06 06:46:21;;;;;;;1.20;1.20;;;20.40;49.80;;;;;;5047975;28;20199;-71
2022/04/06 06:48:48;;;;;;;1.08;1.00;;;20.40;49.80;;;;;;5032403;28;20179;-71
2022/04/06 06:51:16;;;;;;;1.05;0.95;;;20.30;49.70;;;;;;5043007;28;20700;-71
2022/04/06 06:53:42;;;;;;;1.40;1.20;;;20.40;49.80;;;;;;5051511;28;20269;-71
2022/04/06 06:56:08;;;;;;;1.02;0.98;;;20.40;49.80;;;;;;5052170;28;20256;-71
2022/04/06 06:58:35;;;;;;;1.30;1.20;;;20.40;49.80;;;;;;5067486;28;20647;-71
2022/04/06 07:01:00;;;;;;;1.77;1.23;;;20.40;49.80;;;;;;5052012;28;20182;-71
2022/04/06 07:03:27;;;;;;;1.85;1.15;;;20.40;49.80;;;;;;5052205;28;20189;-71
2022/04/06 07:05:53;;;;;;;1.42;0.98;;;20.40;49.90;;;;;;5051850;28;20202;-71
2022/04/06 07:08:19;;;;;;;1.42;1.17;;;20.40;49.80;;;;;;5050170;28;20197;-71
2022/04/06 07:10:46;;;;;;;1.30;1.20;;;20.40;49.80;;;;;;5067090;28;20187;-71
2022/04/06 07:13:15;;;;;;;3.30;1.60;;;20.40;49.80;;;;;;5051050;28;20584;-71
2022/04/06 07:15:41;;;;;;;1.27;1.10;;;20.40;49.90;;;;;;5050749;28;20209;-71
2022/04/06 07:18:08;;;;;;;2.45;1.50;;;20.40;49.90;;;;;;5051767;28;20206;-72
2022/04/06 07:20:37;;;;;;;1.73;1.63;;;20.40;49.90;;;;;;5047617;28;20229;-71
2022/04/06 07:23:07;;;;;;;1.63;1.25;;;20.40;49.80;;;;;;5014372;28;20187;-71
2022/04/06 07:25:34;;;;;;;1.40;1.30;;;20.40;49.80;;;;;;5031060;28;20235;-72
2022/04/06 07:28:00;;;;;;;1.70;1.40;;;20.40;49.90;;;;;;5030756;28;20223;-71
2022/04/06 07:30:26;;;;;;;1.50;1.40;;;20.40;49.80;;;;;;5017533;28;20680;-71
2022/04/06 07:32:52;;;;;;;1.00;1.00;;;20.40;49.80;;;;;;5050839;28;20186;-71
2022/04/06 07:35:19;;;;;;;1.42;1.20;;;20.40;49.90;;;;;;5050693;28;20225;-71
2022/04/06 07:37:48;;;;;;;1.38;1.25;;;20.40;49.90;;;;;;5051669;28;20202;-71
2022/04/06 07:40:18;;;;;;;1.10;1.00;;;20.40;49.80;;;;;;5050302;28;20277;-71
2022/04/06 07:42:44;;;;;;;1.23;1.13;;;20.40;49.90;;;;;;5033619;28;20190;-71
2022/04/06 07:45:14;;;;;;;1.30;1.00;;;20.40;49.90;;;;;;5067258;28;20189;-71
2022/04/06 07:47:41;;;;;;;2.33;1.00;;;20.40;49.90;;;;;;5067168;28;20179;-71
2022/04/06 07:50:08;;;;;;;0.98;0.98;;;20.40;49.90;;;;;;5066305;28;20210;-71
2022/04/06 07:52:36;;;;;;;1.35;1.20;;;20.40;49.90;;;;;;5050951;28;20193;-72
2022/04/06 07:55:07;;;;;;;0.98;0.98;;;20.40;49.90;;;;;;5049856;28;20264;-71
2022/04/06 07:57:34;;;;;;;1.42;1.20;;;20.40;49.90;;;;;;5051328;28;20221;-71
2022/04/06 08:00:07;;;;;;;1.10;1.00;;;20.40;49.90;;;;;;5050483;28;20183;-71
2022/04/06 08:02:33;;;;;;;1.33;1.20;;;20.50;50.00;;;;;;5050921;28;20221;-72
2022/04/06 08:04:59;;;;;;;1.83;1.38;;;20.50;49.90;;;;;;5050643;28;20182;-72
2022/04/06 08:07:25;;;;;;;1.33;1.15;;;20.50;49.90;;;;;;5061389;28;20202;-71
2022/04/06 08:09:51;;;;;;;1.30;1.20;;;20.40;49.90;;;;;;5049935;28;20189;-72
2022/04/06 08:12:17;;;;;;;1.25;1.17;;;20.50;49.90;;;;;;5049065;28;20289;-71
2022/04/06 08:14:42;;;;;;;1.40;1.30;;;20.50;50.00;;;;;;5065743;28;20183;-72
2022/04/06 08:17:08;;;;;;;1.80;1.20;;;20.50;50.00;;;;;;5049651;28;20206;-72
2022/04/06 08:19:34;;;;;;;1.48;1.38;;;20.50;50.00;;;;;;5053347;28;20244;-71
2022/04/06 08:22:00;;;;;;;1.20;1.10;;;20.50;50.00;;;;;;5053464;28;20213;-72
2022/04/06 08:24:27;;;;;;;1.25;1.15;;;20.50;50.00;;;;;;5054354;28;20182;-72
2022/04/06 08:26:53;;;;;;;2.00;1.05;;;20.50;50.00;;;;;;5069415;28;20195;-72
2022/04/06 08:29:19;;;;;;;1.15;1.02;;;20.50;50.00;;;;;;5069641;28;20229;-72
2022/04/06 08:31:45;;;;;;;1.73;1.10;;;20.50;50.00;;;;;;5037987;28;20188;-71
2022/04/06 08:34:11;;;;;;;1.58;1.00;;;20.50;50.00;;;;;;5032759;28;20245;-72
2022/04/06 08:36:39;;;;;;;1.60;1.08;;;20.50;50.00;;;;;;5058999;23;20231;-70
2022/04/06 08:39:05;;;;;;;1.08;0.95;;;20.50;50.00;;;;;;5032815;28;20210;-71
2022/04/06 08:41:31;;;;;;;1.10;0.98;;;20.50;50.00;;;;;;5029266;28;20190;-71
2022/04/06 08:43:57;;;;;;;0.93;0.93;;;20.50;50.00;;;;;;5036851;28;20182;-70
2022/04/06 08:46:23;;;;;;;1.00;1.00;;;20.50;50.00;;;;;;5050140;28;20203;-71
2022/04/06 08:48:54;;;;;;;2.08;0.95;;;20.50;50.00;;;;;;5049598;28;20202;-71
2022/04/06 08:51:20;;;;;;;2.13;1.00;;;20.50;50.00;;;;;;5033384;28;20187;-71
2022/04/06 08:53:47;;;;;;;0.85;0.85;;;20.50;50.00;;;;;;5033620;28;20186;-71
2022/04/06 08:56:14;;;;;;;1.15;0.80;;;20.50;50.10;;;;;;5033201;28;20210;-71
2022/04/06 08:58:44;;;;;;;1.40;0.88;;;20.50;50.00;;;;;;5034338;28;20199;-71
2022/04/06 09:01:10;;;;;;;1.10;1.00;;;20.50;50.00;;;;;;5032913;28;20202;-71
2022/04/06 09:03:36;;;;;;;1.77;0.80;;;20.50;50.00;;;;;;5016776;28;20194;-71
2022/04/06 09:06:08;;;;;;;1.40;1.00;;;20.60;50.00;;;;;;5033071;28;20214;-71
2022/04/06 09:08:43;;;;;;;0.90;0.90;;;20.60;50.00;;;;;;5033040;28;20229;-71
2022/04/06 09:11:22;;;;;;;1.20;0.98;;;20.60;50.00;;;;;;5032834;28;20269;-71
2022/04/06 09:14:00;;;;;;;1.98;0.80;;;20.60;50.00;;;;;;5033298;28;20257;-71
2022/04/06 09:16:29;;;;;;;0.80;0.80;;;20.60;50.00;;;;;;5032908;28;20226;-71
2022/04/06 09:18:55;;;;;;;1.08;1.00;;;20.60;50.00;;;;;;5016042;28;20264;-69
2022/04/06 09:21:21;;;;;;;0.80;0.80;;;20.60;50.00;;;;;;5019998;28;20187;-69
2022/04/06 09:23:48;;;;;;;0.88;0.88;;;20.60;50.00;;;;;;5049525;28;20179;-69
2022/04/06 09:26:19;;;;;;;1.13;0.90;;;20.60;49.90;;;;;;5033895;28;20207;-70
2022/04/06 09:28:48;;;;;;;1.00;1.00;;;20.60;50.00;;;;;;5032610;28;20183;-70
2022/04/06 09:31:15;;;;;;;1.10;1.10;;;20.60;50.00;;;;;;5024082;28;20563;-70
2022/04/06 09:33:43;;;;;;;0.80;0.80;;;20.60;49.90;;;;;;5016262;28;20250;-70
2022/04/06 09:36:20;;;;;;;1.50;0.77;;;20.60;49.90;;;;;;5015684;28;20214;-70
2022/04/06 09:38:51;;;;;;;0.85;0.85;;;20.70;50.00;;;;;;5015717;28;20219;-70
2022/04/06 09:41:19;;;;;;;1.42;0.93;;;20.70;50.00;;;;;;5032344;28;20255;-70
2022/04/06 09:43:46;;;;;;;0.95;0.80;;;20.70;50.00;;;;;;5015932;28;20195;-70
2022/04/06 09:49:09;;;;;;;0.80;0.80;;;20.70;50.00;;;;;;5033394;28;20198;-70
2022/04/06 09:51:36;;;;;;;1.27;0.60;;;20.70;50.00;;;;;;5033233;28;20183;-70
2022/04/06 09:54:05;;;;;;;0.90;0.90;;;20.70;50.00;;;;;;5032477;28;20183;-70
2022/04/06 09:56:33;;;;;;;0.88;0.88;;;20.70;50.00;;;;;;5048729;28;20203;-70
2022/04/06 09:59:01;;;;;;;0.68;0.68;;;20.70;50.00;;;;;;5031842;28;20235;-70
2022/04/06 10:01:35;;;;;;;1.02;0.70;;;20.70;50.00;;;;;;5027368;28;20183;-68
2022/04/06 10:04:11;;;;;;;0.85;0.80;;;20.70;50.00;;;;;;5015526;28;20183;-69
2022/04/06 10:06:40;;;;;;;2.03;1.00;;;20.70;50.00;;;;;;5015339;28;20291;-70
2022/04/06 10:09:09;;;;;;;0.68;0.68;;;20.70;50.00;;;;;;5013235;28;20180;-70
2022/04/06 10:11:37;;;;;;;0.77;0.70;;;20.70;50.00;;;;;;5011172;28;20194;-70
2022/04/06 10:14:05;;;;;;;0.70;0.70;;;20.70;50.00;;;;;;5031659;28;20215;-69
2022/04/06 10:16:32;;;;;;;1.65;0.80;;;20.80;50.10;;;;;;5031824;28;20301;-70
2022/04/06 10:19:00;;;;;;;0.73;0.70;;;20.70;50.00;;;;;;5031457;28;20225;-69
2022/04/06 10:22:01;;;;;;;0.82;0.80;;;20.80;50.10;;;;;;5031740;28;20210;-69
2022/04/06 10:24:51;;;;;;;2.38;0.77;;;20.80;50.10;;;;;;5031819;28;20186;-70
2022/04/06 10:27:41;;;;;;;1.50;0.73;;;20.70;50.00;;;;;;5031469;28;20227;-69
2022/04/06 10:30:20;;;;;;;0.60;0.60;;;20.70;50.20;;;;;;5032876;28;20168;-70
2022/04/06 10:32:49;;;;;;;0.50;0.50;;;20.80;50.10;;;;;;5014938;28;20187;-70
2022/04/06 10:35:19;;;;;;;0.60;0.60;;;20.80;50.00;;;;;;5030776;28;20190;-73
2022/04/06 10:38:17;;;;;;;0.90;0.90;;;20.80;50.00;;;;;;5014569;28;20211;-70
2022/04/06 10:40:46;;;;;;;1.60;0.80;;;20.80;50.00;;;;;;5007043;28;20582;-70
2022/04/06 10:43:38;;;;;;;1.45;0.80;;;20.80;50.00;;;;;;5014589;28;20222;-69
2022/04/06 10:46:15;;;;;;;0.68;0.68;;;20.80;50.00;;;;;;5029649;28;20207;-70
2022/04/06 10:49:06;;;;;;;0.88;0.70;;;20.80;50.00;;;;;;5032035;28;20677;-71
2022/04/06 10:51:41;;;;;;;1.27;0.70;;;20.80;50.00;;;;;;5013579;28;20218;-70
2022/04/06 10:54:13;;;;;;;0.88;0.80;;;20.80;50.00;;;;;;5020442;28;20184;-69
2022/04/06 10:57:01;;;;;;;0.82;0.80;;;20.70;50.00;;;;;;5030777;28;20218;-70
2022/04/06 10:59:28;;;;;;;0.70;0.63;;;20.80;50.00;;;;;;5011766;28;20222;-69
2022/04/06 11:02:26;;;;;;;0.80;0.70;;;20.80;50.00;;;;;;5012380;28;20195;-69
2022/04/06 11:04:52;;;;;;;1.67;0.80;;;20.80;50.00;;;;;;5011313;28;20179;-70
2022/04/06 11:10:25;;;;;;;1.52;0.70;;;20.80;50.00;;;;;;5012569;28;20244;-70
2022/04/06 11:13:09;;;;;;;1.08;0.90;;;20.80;50.00;;;;;;5030680;28;20199;-70
2022/04/06 11:15:41;;;;;;;0.50;0.50;;;20.80;50.00;;;;;;5011125;28;20291;-70
2022/04/06 11:18:46;;;;;;;0.73;0.70;;;20.80;50.00;;;;;;5022510;28;20206;-70
2022/04/06 11:21:14;;;;;;;0.60;0.60;;;20.80;49.90;;;;;;5029404;28;20191;-69
2022/04/06 11:23:41;;;;;;;0.70;0.70;;;20.80;49.90;;;;;;5020027;28;20183;-70
2022/04/06 11:26:07;;;;;;;0.70;0.70;;;20.80;50.00;;;;;;5014389;28;20215;-70
2022/04/06 11:28:33;;;;;;;0.77;0.70;;;20.80;49.90;;;;;;5030944;28;20193;-69
2022/04/06 11:31:03;;;;;;;2.42;0.90;;;20.80;49.90;;;;;;5030677;28;20179;-70
2022/04/06 11:33:40;;;;;;;1.90;0.73;;;20.80;49.80;;;;;;5030669;28;20225;-70
2022/04/06 11:36:18;;;;;;;1.83;0.70;;;20.80;49.80;;;;;;5021605;28;20301;-70
2022/04/06 11:38:50;;;;;;;1.52;0.85;;;20.80;49.90;;;;;;5030444;28;20221;-69
2022/04/06 11:41:19;;;;;;;0.70;0.70;;;20.80;50.00;;;;;;5013682;28;20192;-68
2022/04/06 11:43:46;;;;;;;2.38;0.70;;;20.80;49.80;;;;;;4997454;28;20194;-69
2022/04/06 11:46:12;;;;;;;0.65;0.60;;;20.80;49.80;;;;;;5013277;28;20216;-67
2022/04/06 11:48:42;;;;;;;0.70;0.70;;;20.80;50.00;;;;;;5014073;28;20191;-69
2022/04/06 11:51:09;;;;;;;0.60;0.60;;;20.80;50.00;;;;;;5010877;28;20195;-69
2022/04/06 11:53:36;;;;;;;1.73;0.57;;;20.80;49.80;;;;;;5013585;28;20195;-69
2022/04/06 11:56:03;;;;;;;1.00;0.70;;;20.80;49.90;;;;;;5014737;28;20250;-70
2022/04/06 11:58:38;;;;;;;1.10;0.82;;;20.80;50.00;;;;;;5003842;28;20739;-67
2022/04/06 12:01:06;;;;;;;1.23;0.70;;;20.80;50.20;;;;;;5017875;28;20186;-68
2022/04/06 12:03:35;;;;;;;0.75;0.63;;;20.80;50.00;;;;;;5050239;28;20187;-70
2022/04/06 12:06:03;;;;;;;1.10;0.80;;;20.80;50.00;;;;;;5016607;28;20207;-70
2022/04/06 12:08:33;;;;;;;0.85;0.60;;;20.80;49.90;;;;;;5016922;28;20654;-70
2022/04/06 12:10:59;;;;;;;0.93;0.70;;;20.80;49.90;;;;;;5017041;28;20225;-70
2022/04/06 12:13:34;;;;;;;0.75;0.75;;;20.80;49.80;;;;;;5033441;28;20240;-70
2022/04/06 12:16:02;;;;;;;0.55;0.55;;;20.80;49.80;;;;;;5049908;28;20211;-70
2022/04/06 12:18:29;;;;;;;1.33;0.93;;;20.80;49.80;;;;;;5033394;28;20211;-69
2022/04/06 12:20:55;;;;;;;0.82;0.80;;;20.80;49.80;;;;;;5033652;28;20567;-69
2022/04/06 12:23:26;;;;;;;1.20;0.80;;;20.80;49.80;;;;;;5017138;28;20191;-70
2022/04/06 12:25:56;;;;;;;1.08;0.80;;;20.80;49.80;;;;;;5016879;28;20218;-69
2022/04/06 12:28:26;;;;;;;1.75;0.60;;;20.80;49.80;;;;;;5033467;28;20201;-69
2022/04/06 12:31:03;;;;;;;2.13;0.63;;;20.80;49.80;;;;;;5049484;28;20666;-70
2022/04/06 12:33:50;;;;;;;0.70;0.70;;;20.80;49.80;;;;;;5016817;28;20190;-69
2022/04/06 12:36:34;;;;;;;2.45;0.70;;;20.80;49.80;;;;;;5032596;28;20219;-69
2022/04/06 12:39:10;;;;;;;0.75;0.70;;;20.80;49.70;;;;;;5034249;28;20226;-70
2022/04/06 12:42:05;;;;;;;1.58;0.80;;;20.80;49.70;;;;;;5033165;28;20183;-70
2022/04/06 12:44:33;;;;;;;0.98;0.85;;;20.80;49.70;;;;;;5049921;28;20179;-69
2022/04/06 12:47:01;;;;;;;0.95;0.60;;;20.80;49.70;;;;;;5016552;28;20207;-70
2022/04/06 12:49:46;;;;;;;0.68;0.65;;;20.80;49.70;;;;;;5032045;28;20183;-69
2022/04/06 12:52:26;;;;;;;1.85;0.82;;;20.80;49.70;;;;;;5016271;28;20693;-69
2022/04/06 12:55:00;;;;;;;0.90;0.70;;;20.80;49.70;;;;;;5032642;28;20195;-69
2022/04/06 12:57:25;;;;;;;1.67;0.70;;;20.80;49.70;;;;;;5032716;28;20681;-67
2022/04/06 13:00:13;;;;;;;1.38;0.80;;;20.90;49.90;;;;;;5016031;28;20209;-70
2022/04/06 13:02:57;;;;;;;1.20;0.77;;;20.90;49.90;;;;;;4999680;28;20205;-71
2022/04/06 13:05:23;;;;;;;0.60;0.57;;;20.90;49.80;;;;;;5032743;28;20189;-70